Time;durP1;ratioP1;P1;durP2;ratioP2;P2;SDS_P1;SDS_P2;PMS_P1;PMS_P2;Temp;Humidity;BMP_temperature;BMP_pressure;BME280_temperature;BME280_humidity;BME280_pressure;Samples;Min_cycle;Max_cycle;Signal;HPM_P1;HPM_P2
2022/07/26 06:30:47;;;;;;;7.90;1.15;;;;;;;21.33;50.87;96551.78;2121131;27;21158;-64
2022/07/26 06:31:49;;;;;;;6.70;1.23;;;;;;;21.32;50.37;96557.25;2092284;28;20212;-65
2022/07/26 06:32:50;;;;;;;3.03;1.05;;;;;;;21.45;50.56;96557.81;2081990;28;20426;-65
2022/07/26 06:33:52;;;;;;;4.22;1.55;;;;;;;21.62;50.24;96556.31;2084765;28;20197;-65
2022/07/26 06:34:53;;;;;;;8.43;1.30;;;;;;;21.57;50.43;96555.88;2083987;28;20215;-65
2022/07/26 06:54:40;;;;;;;2.85;1.13;;;;;;;22.26;46.64;96563.78;2122137;27;20770;-64
2022/07/26 06:55:42;;;;;;;3.30;1.17;;;;;;;22.49;46.43;96559.84;2101796;28;20647;-64
2022/07/26 06:56:44;;;;;;;11.00;1.23;;;;;;;22.32;46.23;96564.06;2094335;28;20197;-65
2022/07/26 06:57:45;;;;;;;7.35;0.90;;;;;;;22.29;46.04;96553.69;2087085;28;20207;-65
2022/07/26 06:58:50;;;;;;;4.53;1.02;;;;;;;22.53;45.95;96560.38;2087145;28;20591;-65
2022/07/26 06:59:52;;;;;;;4.90;1.08;;;;;;;22.58;46.09;96551.97;2087087;28;20205;-65
2022/07/26 07:00:53;;;;;;;4.60;0.90;;;;;;;22.81;45.75;96558.56;2086242;28;20548;-65
2022/07/26 07:21:28;;;;;;;4.82;1.20;;;;;;;23.28;43.21;96555.00;2082650;28;21111;-64
2022/07/26 07:22:30;;;;;;;3.03;0.90;;;;;;;23.33;43.56;96559.88;2072024;28;20524;-65
2022/07/26 07:23:32;;;;;;;4.20;1.00;;;;;;;23.42;43.41;96560.81;2069048;28;20196;-65
2022/07/26 07:24:34;;;;;;;2.88;1.05;;;;;;;23.51;42.92;96551.88;2070691;28;20198;-65
2022/07/26 07:25:35;;;;;;;6.60;1.05;;;;;;;23.38;43.09;96557.59;2070693;28;20658;-65
2022/07/26 07:26:37;;;;;;;5.03;1.02;;;;;;;23.18;43.19;96562.22;2070122;28;20199;-65
2022/07/26 07:27:39;;;;;;;9.95;0.90;;;;;;;22.82;43.71;96557.59;2070133;28;20731;-64
2022/07/26 07:28:40;;;;;;;4.47;1.00;;;;;;;22.91;43.97;96565.69;2069999;28;20549;-66
2022/07/26 07:29:42;;;;;;;5.47;0.98;;;;;;;22.93;44.33;96561.91;2070637;28;20676;-66
2022/07/26 07:50:56;;;;;;;4.65;1.10;;;;;;;22.42;43.45;96566.72;2106618;27;20558;-66
2022/07/26 07:51:59;;;;;;;3.17;1.00;;;;;;;22.20;43.70;96553.75;2101810;27;20193;-66
2022/07/26 07:53:00;;;;;;;4.63;1.05;;;;;;;22.16;43.62;96562.00;2100594;28;20181;-67
2022/07/26 07:54:03;;;;;;;3.22;1.25;;;;;;;22.13;43.68;96556.97;2100716;28;20275;-66
2022/07/26 07:55:07;;;;;;;6.28;1.00;;;;;;;22.02;43.60;96559.78;2099559;28;20246;-66
2022/07/26 07:56:28;;;;;;;2.05;0.88;;;;;;;22.24;43.09;96561.28;2117720;28;20208;-66
2022/07/26 07:57:30;;;;;;;2.90;0.98;;;;;;;22.25;43.84;96560.28;2109073;28;20228;-67
2022/07/26 07:58:33;;;;;;;3.47;0.85;;;;;;;22.35;43.29;96563.75;2099723;28;20205;-67
2022/07/26 07:59:34;;;;;;;4.10;1.10;;;;;;;22.52;42.88;96558.69;2099393;28;20199;-66
2022/07/26 08:00:39;;;;;;;3.80;0.80;;;;;;;22.50;42.52;96566.00;2101089;28;20196;-66
2022/07/26 08:16:43;;;;;;;6.30;1.35;;;;;;;22.82;41.21;96552.28;2083528;28;20576;-66
2022/07/26 08:17:45;;;;;;;5.70;0.90;;;;;;;23.15;41.19;96566.00;2084274;28;20283;-66
2022/07/26 08:18:56;;;;;;;2.05;0.80;;;;;;;23.05;41.52;96548.41;2085579;28;20243;-66
2022/07/26 08:20:09;;;;;;;5.20;1.38;;;;;;;23.05;41.59;96554.53;2081769;28;20625;-67
2022/07/26 08:21:15;;;;;;;3.90;0.93;;;;;;;23.16;41.39;96561.53;2078287;28;20224;-67
2022/07/26 08:22:16;;;;;;;6.28;1.75;;;;;;;23.51;41.17;96562.53;2080277;28;20226;-67
2022/07/26 08:23:19;;;;;;;1.45;0.80;;;;;;;23.55;41.21;96555.09;2081485;28;20220;-67
2022/07/26 08:24:20;;;;;;;4.38;0.80;;;;;;;23.75;40.59;96566.44;2082153;28;20205;-67
2022/07/26 08:25:22;;;;;;;5.55;0.90;;;;;;;24.16;39.89;96556.13;2081873;28;20640;-66
2022/07/26 08:26:23;;;;;;;2.55;1.05;;;;;;;24.42;39.54;96565.97;2084383;28;20201;-67
2022/07/26 08:27:25;;;;;;;3.10;1.05;;;;;;;24.47;38.62;96561.00;2076691;28;20224;-66
2022/07/26 08:28:27;;;;;;;5.68;1.20;;;;;;;24.71;38.66;96562.16;2077471;28;20205;-66
2022/07/26 08:29:48;;;;;;;5.00;0.85;;;;;;;24.86;38.64;96565.06;2081411;28;20208;-66
2022/07/26 08:30:50;;;;;;;1.92;0.80;;;;;;;24.85;38.86;96564.22;2080360;28;20553;-67
2022/07/26 08:31:51;;;;;;;3.80;0.90;;;;;;;24.43;39.35;96568.47;2080688;28;20196;-67
2022/07/26 08:32:53;;;;;;;9.88;1.23;;;;;;;24.31;38.86;96576.91;2081644;28;20199;-67
2022/07/26 08:33:55;;;;;;;2.70;1.00;;;;;;;23.62;39.23;96572.16;2084027;28;20197;-67
2022/07/26 08:34:56;;;;;;;4.45;1.20;;;;;;;23.56;40.00;96556.78;2080727;28;20225;-67
2022/07/26 08:36:18;;;;;;;3.63;1.35;;;;;;;23.53;40.18;96563.25;2083782;28;20729;-67
2022/07/26 08:37:19;;;;;;;2.90;1.00;;;;;;;23.58;40.06;96560.09;2082583;28;20221;-67
2022/07/26 08:38:21;;;;;;;3.67;1.25;;;;;;;23.79;39.87;96565.13;2075717;28;20297;-67
2022/07/26 08:39:22;;;;;;;3.63;1.10;;;;;;;23.85;39.67;96567.19;2079095;28;20220;-67
2022/07/26 08:58:35;;;;;;;4.75;1.50;;;;;;;24.10;39.36;96570.94;2100137;27;20765;-67
2022/07/26 08:59:38;;;;;;;3.13;1.30;;;;;;;24.44;38.65;96571.97;2092697;28;20189;-67
2022/07/26 09:00:42;;;;;;;6.68;1.50;;;;;;;24.65;37.93;96576.97;2091710;28;20827;-69
2022/07/26 09:01:54;;;;;;;4.00;0.88;;;;;;;24.38;38.11;96575.25;2093977;28;20548;-68
2022/07/26 09:02:58;;;;;;;4.22;1.00;;;;;;;24.19;38.65;96574.50;2091172;28;20229;-67
2022/07/26 09:04:17;;;;;;;2.13;1.00;;;;;;;23.82;39.12;96578.19;2092172;28;20204;-68
2022/07/26 09:05:36;;;;;;;6.85;0.93;;;;;;;24.11;38.87;96585.94;2093317;28;20716;-68
2022/07/26 09:06:37;;;;;;;5.47;1.30;;;;;;;24.24;38.87;96569.53;2092470;28;20560;-68
2022/07/26 09:07:44;;;;;;;7.30;1.20;;;;;;;24.17;38.68;96562.31;2083871;28;20228;-68
2022/07/26 09:08:48;;;;;;;4.15;1.10;;;;;;;24.48;38.19;96577.84;2084554;28;20200;-68
2022/07/26 09:09:57;;;;;;;2.80;0.90;;;;;;;25.02;37.77;96569.63;2084277;28;20193;-68
2022/07/26 09:10:58;;;;;;;4.53;1.20;;;;;;;25.34;36.74;96573.41;2085918;28;20194;-68
2022/07/26 09:12:18;;;;;;;2.17;1.00;;;;;;;25.02;37.40;96574.97;2084068;28;20198;-68
2022/07/26 09:13:21;;;;;;;9.07;0.90;;;;;;;24.81;37.61;96570.91;2084428;28;20200;-68
2022/07/26 09:14:36;;;;;;;2.53;0.95;;;;;;;24.69;37.86;96566.81;2084379;28;20213;-68
2022/07/26 09:15:37;;;;;;;3.92;1.30;;;;;;;24.87;37.68;96575.56;2084373;28;20205;-70
2022/07/26 09:16:39;;;;;;;2.22;1.00;;;;;;;24.65;38.03;96578.81;2084538;28;20189;-70
2022/07/26 09:17:44;;;;;;;4.32;1.25;;;;;;;25.01;37.74;96581.31;2084262;28;20271;-70
2022/07/26 09:18:46;;;;;;;8.55;1.25;;;;;;;25.83;36.65;96588.75;2085158;28;20198;-70
2022/07/26 09:20:08;;;;;;;2.85;1.05;;;;;;;25.67;36.35;96586.88;2085527;28;20202;-70
2022/07/26 09:21:27;;;;;;;3.17;0.98;;;;;;;25.28;37.40;96574.91;2084614;28;20199;-70
2022/07/26 09:22:29;;;;;;;4.00;0.80;;;;;;;25.21;37.40;96590.72;2082833;28;20269;-70
2022/07/26 09:23:42;;;;;;;4.93;1.10;;;;;;;24.91;37.51;96576.94;2083634;28;20213;-70
2022/07/26 09:24:46;;;;;;;3.55;1.13;;;;;;;25.01;38.02;96597.34;2085696;28;20200;-69
2022/07/26 09:25:47;;;;;;;7.53;1.10;;;;;;;24.51;39.04;96593.56;2084947;28;20652;-71
2022/07/26 09:26:56;;;;;;;3.30;0.95;;;;;;;24.78;38.79;96585.41;2082952;28;20200;-71
2022/07/26 09:27:58;;;;;;;1.70;0.80;;;;;;;25.03;38.20;96590.00;2083470;28;20211;-71
2022/07/26 09:29:08;;;;;;;4.32;1.10;;;;;;;24.51;39.05;96594.38;2084872;28;20685;-72
2022/07/26 09:46:34;;;;;;;4.35;1.10;;;;;;;24.94;38.49;96581.94;2086061;28;20566;-67
2022/07/26 09:47:38;;;;;;;2.05;0.88;;;;;;;25.22;38.63;96600.44;2084309;28;20573;-68
2022/07/26 09:48:39;;;;;;;2.60;1.10;;;;;;;25.29;38.12;96605.13;2084202;28;20279;-69
2022/07/26 09:50:17;;;;;;;11.15;1.10;;;;;;;25.59;37.98;96599.22;2084579;28;20196;-68
2022/07/26 09:51:38;;;;;;;3.88;1.00;;;;;;;25.56;37.39;96604.03;2080413;28;20196;-66
2022/07/26 09:52:39;;;;;;;4.22;1.35;;;;;;;26.07;36.81;96606.66;2083736;28;20217;-66
2022/07/26 09:53:44;;;;;;;3.00;1.15;;;;;;;26.04;36.75;96602.47;2082579;28;20203;-66
2022/07/26 09:54:48;;;;;;;4.22;1.00;;;;;;;26.23;36.23;96611.16;2083359;28;20205;-66
2022/07/26 09:55:49;;;;;;;2.88;0.82;;;;;;;26.34;36.03;96615.34;2083061;28;20194;-66
2022/07/26 09:56:52;;;;;;;2.33;1.05;;;;;;;26.19;36.05;96616.00;2084516;28;20203;-66
2022/07/26 09:57:53;;;;;;;1.95;0.90;;;;;;;25.97;36.24;96595.28;2081069;28;20573;-66
2022/07/26 09:58:55;;;;;;;2.95;1.10;;;;;;;26.07;36.88;96606.66;2072808;28;20198;-66
2022/07/26 09:59:56;;;;;;;2.55;1.10;;;;;;;26.36;36.62;96616.84;2073576;28;20201;-66
2022/07/26 10:00:58;;;;;;;3.50;1.23;;;;;;;25.93;36.85;96616.16;2074842;28;20549;-66
2022/07/26 10:02:03;;;;;;;2.58;1.13;;;;;;;26.02;37.13;96608.97;2071736;28;20249;-66
2022/07/26 10:03:04;;;;;;;3.60;1.13;;;;;;;26.32;36.77;96612.00;2083162;28;20579;-66
2022/07/26 10:04:06;;;;;;;3.65;1.00;;;;;;;26.42;36.27;96607.31;2084651;28;20272;-67
2022/07/26 10:05:08;;;;;;;2.72;1.20;;;;;;;26.66;36.29;96610.94;2077452;28;20209;-66
2022/07/26 10:06:10;;;;;;;5.88;0.90;;;;;;;26.94;35.72;96607.91;2080921;28;20252;-66
2022/07/26 10:07:12;;;;;;;8.68;1.75;;;;;;;26.99;35.53;96613.56;2082823;28;20236;-66
2022/07/26 10:08:14;;;;;;;2.70;0.82;;;;;;;26.86;35.87;96614.94;2081943;28;20197;-66
2022/07/26 10:09:17;;;;;;;2.42;0.93;;;;;;;27.06;35.12;96617.25;2083030;28;20209;-66
2022/07/26 10:10:25;;;;;;;2.25;0.80;;;;;;;26.24;35.99;96615.53;2080492;28;20205;-66
2022/07/26 10:11:34;;;;;;;3.70;1.00;;;;;;;25.94;36.61;96614.31;2083939;28;20690;-66
2022/07/26 10:12:36;;;;;;;1.80;0.90;;;;;;;26.26;36.14;96621.56;2077685;28;20233;-66
2022/07/26 10:13:38;;;;;;;4.22;0.85;;;;;;;26.69;35.36;96615.94;2080584;28;20731;-66
2022/07/26 10:14:50;;;;;;;2.30;0.90;;;;;;;27.40;34.30;96615.28;2081729;28;20225;-66
2022/07/26 10:15:51;;;;;;;2.00;0.90;;;;;;;27.16;33.82;96609.81;2081582;28;20224;-66
2022/07/26 10:16:53;;;;;;;2.90;0.85;;;;;;;26.97;33.93;96597.69;2081969;28;20204;-66
2022/07/26 10:17:54;;;;;;;2.50;0.90;;;;;;;26.70;34.47;96612.28;2083296;28;20246;-66
2022/07/26 10:35:32;;;;;;;4.60;0.98;;;;;;;26.90;34.26;96612.75;2106871;27;20539;-66
2022/07/26 10:36:36;;;;;;;4.40;1.08;;;;;;;26.97;34.03;96618.25;2103077;28;20205;-66
2022/07/26 10:37:57;;;;;;;2.20;0.90;;;;;;;27.16;33.83;96620.53;2100393;28;20229;-66
2022/07/26 10:39:14;;;;;;;2.63;1.00;;;;;;;27.32;33.64;96611.56;2095374;28;20201;-66
2022/07/26 10:40:18;;;;;;;3.17;0.90;;;;;;;27.51;33.59;96614.88;2097943;28;20206;-67
2022/07/26 10:41:37;;;;;;;3.28;1.00;;;;;;;27.98;32.20;96615.75;2099378;28;20277;-66
2022/07/26 10:42:43;;;;;;;4.95;0.90;;;;;;;27.78;32.47;96621.59;2099288;28;20228;-66
2022/07/26 10:44:11;;;;;;;2.38;0.90;;;;;;;27.89;32.47;96617.66;2101326;28;20658;-66
2022/07/26 10:45:20;;;;;;;1.77;0.80;;;;;;;27.61;32.92;96623.53;2099629;28;20189;-66
2022/07/26 10:46:23;;;;;;;5.75;1.15;;;;;;;27.79;32.44;96620.56;2101724;28;20215;-66
2022/07/26 10:47:25;;;;;;;2.00;0.90;;;;;;;27.54;31.50;96622.56;2102218;28;20238;-66
2022/07/26 10:48:30;;;;;;;2.83;1.00;;;;;;;27.77;31.97;96630.66;2094871;28;20652;-66
2022/07/26 10:49:40;;;;;;;4.82;0.90;;;;;;;27.84;31.83;96623.53;2095139;28;20199;-66
2022/07/26 10:50:45;;;;;;;1.83;1.00;;;;;;;27.24;32.81;96627.72;2097003;28;20192;-66
2022/07/26 10:51:46;;;;;;;6.68;0.80;;;;;;;27.61;32.26;96622.72;2096851;28;20211;-66
2022/07/26 10:52:58;;;;;;;5.32;1.05;;;;;;;27.72;31.87;96630.34;2097250;28;20215;-66
2022/07/26 10:54:00;;;;;;;3.10;1.00;;;;;;;27.41;32.41;96631.16;2107198;28;20202;-66
2022/07/26 10:55:05;;;;;;;2.85;0.85;;;;;;;27.65;32.28;96630.22;2095755;28;20208;-66
2022/07/26 10:56:06;;;;;;;4.40;1.10;;;;;;;27.88;31.91;96625.88;2098348;28;20749;-66
2022/07/26 10:57:08;;;;;;;3.53;1.10;;;;;;;27.49;31.57;96620.44;2098759;28;20249;-67
2022/07/26 10:58:09;;;;;;;1.30;0.70;;;;;;;27.52;31.62;96616.56;2099184;28;20192;-67
2022/07/26 10:59:11;;;;;;;2.28;0.70;;;;;;;27.36;32.61;96634.38;2099144;28;20290;-66
2022/07/26 11:00:14;;;;;;;2.10;0.80;;;;;;;27.70;32.60;96630.50;2098422;28;20302;-65
2022/07/26 11:01:16;;;;;;;2.25;0.82;;;;;;;27.93;32.63;96636.91;2091764;28;20203;-66
2022/07/26 11:02:19;;;;;;;2.75;0.90;;;;;;;27.07;33.21;96634.13;2097909;28;20220;-66
2022/07/26 11:03:21;;;;;;;5.07;1.13;;;;;;;27.09;33.48;96630.28;2099532;28;20192;-66
2022/07/26 11:04:24;;;;;;;3.97;1.05;;;;;;;27.38;32.78;96628.81;2098773;28;20543;-66
2022/07/26 11:05:33;;;;;;;4.15;1.27;;;;;;;27.93;31.71;96629.69;2099906;28;20683;-66
2022/07/26 11:06:34;;;;;;;2.13;0.80;;;;;;;27.66;32.54;96623.00;2096066;28;20201;-65
2022/07/26 11:07:47;;;;;;;6.45;0.90;;;;;;;28.30;31.51;96627.28;2097355;28;20235;-66
2022/07/26 11:08:49;;;;;;;8.05;1.13;;;;;;;27.82;32.31;96616.69;2098033;28;20204;-66
2022/07/26 11:09:55;;;;;;;2.40;0.80;;;;;;;26.99;33.39;96626.97;2094112;28;20201;-66
2022/07/26 11:10:56;;;;;;;1.30;0.60;;;;;;;26.89;33.20;96628.00;2098294;28;20196;-67
2022/07/26 11:12:16;;;;;;;4.18;0.90;;;;;;;26.14;34.00;96636.25;2098441;28;20203;-66
2022/07/26 11:13:20;;;;;;;2.50;0.85;;;;;;;26.27;34.39;96635.75;2098152;28;20196;-66
2022/07/26 11:14:21;;;;;;;2.88;0.90;;;;;;;26.34;34.35;96634.09;2095733;28;20760;-66
2022/07/26 11:15:24;;;;;;;3.40;1.05;;;;;;;25.98;34.74;96626.34;2098851;28;20375;-67
2022/07/26 11:16:25;;;;;;;2.53;0.90;;;;;;;26.03;34.51;96630.22;2100256;28;20201;-66
2022/07/26 11:17:30;;;;;;;3.90;1.25;;;;;;;26.78;33.21;96628.38;2097410;28;20243;-66
2022/07/26 11:18:34;;;;;;;2.33;1.05;;;;;;;27.18;32.75;96628.41;2099371;28;20195;-66
2022/07/26 11:19:39;;;;;;;2.45;0.90;;;;;;;27.79;31.59;96633.97;2098524;28;20204;-66
2022/07/26 11:20:42;;;;;;;1.77;0.80;;;;;;;27.93;31.75;96621.66;2098351;28;20200;-66
2022/07/26 11:21:45;;;;;;;4.78;0.80;;;;;;;27.47;32.15;96633.16;2098318;28;20196;-65
2022/07/26 11:22:47;;;;;;;2.42;0.82;;;;;;;26.93;32.97;96616.94;2088552;28;20224;-66
2022/07/26 11:23:50;;;;;;;1.63;0.88;;;;;;;27.24;32.36;96617.00;2091187;28;20200;-66
2022/07/26 11:24:52;;;;;;;3.67;1.00;;;;;;;27.05;31.81;96627.09;2094555;28;20197;-66
2022/07/26 11:26:22;;;;;;;5.95;1.35;;;;;;;27.75;31.32;96630.00;2086994;28;20619;-66
2022/07/26 11:27:24;;;;;;;4.75;1.08;;;;;;;28.12;31.05;96608.81;2070491;28;20223;-67
2022/07/26 11:28:27;;;;;;;2.67;0.90;;;;;;;28.34;30.03;96613.31;2092349;28;20211;-67
2022/07/26 11:29:33;;;;;;;3.25;0.77;;;;;;;28.80;29.77;96623.13;2092892;28;20567;-66
2022/07/26 11:30:58;;;;;;;5.40;1.00;;;;;;;29.22;29.56;96617.31;2100407;28;20200;-66
2022/07/26 11:32:05;;;;;;;2.08;0.77;;;;;;;28.62;29.95;96618.09;2090006;28;20204;-66
2022/07/26 11:33:17;;;;;;;2.55;0.80;;;;;;;28.50;30.06;96616.84;2092042;28;20208;-66
2022/07/26 11:34:21;;;;;;;1.88;0.85;;;;;;;28.72;29.66;96622.38;2094077;28;20196;-67
2022/07/26 11:35:24;;;;;;;2.17;0.90;;;;;;;28.78;29.60;96625.16;2094605;28;20567;-66
2022/07/26 11:36:37;;;;;;;1.58;0.95;;;;;;;28.94;29.64;96618.78;2094305;28;20250;-65
2022/07/26 11:37:38;;;;;;;1.63;0.82;;;;;;;28.59;29.82;96628.34;2091392;28;20235;-66
2022/07/26 11:38:46;;;;;;;2.38;0.93;;;;;;;28.52;29.90;96625.56;2088436;28;20204;-66
2022/07/26 11:39:47;;;;;;;2.10;0.80;;;;;;;28.38;30.29;96621.84;2089167;28;20204;-66
2022/07/26 11:40:49;;;;;;;2.17;0.88;;;;;;;28.30;30.21;96621.91;2088256;28;20655;-65
2022/07/26 11:41:56;;;;;;;2.22;0.90;;;;;;;27.40;30.61;96612.59;2089684;28;20214;-66
2022/07/26 11:42:57;;;;;;;1.60;0.70;;;;;;;27.88;30.12;96625.88;2089755;28;20197;-66
2022/07/26 11:43:59;;;;;;;2.42;0.80;;;;;;;28.02;29.50;96617.06;2090217;28;20585;-66
2022/07/26 11:45:03;;;;;;;1.30;0.80;;;;;;;28.02;29.16;96623.28;2089831;28;20602;-66
2022/07/26 11:46:05;;;;;;;1.50;0.80;;;;;;;27.42;30.13;96616.75;2087451;28;20194;-66
2022/07/26 11:47:11;;;;;;;3.05;1.98;;;;;;;27.78;29.97;96621.59;2088121;28;20742;-65
2022/07/26 11:48:13;;;;;;;7.57;4.82;;;;;;;27.46;30.44;96617.25;2084273;28;20206;-65
2022/07/26 11:49:17;;;;;;;10.10;2.00;;;;;;;28.03;29.93;96611.53;2082267;28;20198;-64
2022/07/26 11:50:18;;;;;;;4.07;2.30;;;;;;;28.21;29.70;96598.84;2085478;28;20200;-65
2022/07/26 11:51:24;;;;;;;4.00;1.40;;;;;;;28.42;29.55;96611.56;2084955;28;20808;-66
2022/07/26 11:52:30;;;;;;;2.97;1.00;;;;;;;28.34;29.54;96599.88;2082124;28;20736;-65
2022/07/26 11:53:38;;;;;;;3.50;1.30;;;;;;;28.23;29.31;96605.69;2082820;28;20537;-66
2022/07/26 11:54:46;;;;;;;1.65;0.80;;;;;;;28.04;30.44;96612.38;2083243;28;20876;-67
2022/07/26 11:55:47;;;;;;;2.38;0.80;;;;;;;28.34;29.75;96615.16;2085579;28;20213;-66
2022/07/26 11:56:57;;;;;;;2.25;0.85;;;;;;;27.86;30.51;96609.97;2086291;28;20734;-67
2022/07/26 11:58:05;;;;;;;1.80;1.08;;;;;;;28.09;30.65;96614.53;2075631;28;20202;-67
2022/07/26 11:59:12;;;;;;;3.97;0.90;;;;;;;28.09;29.92;96607.31;2076470;28;20221;-67
2022/07/26 12:00:15;;;;;;;1.40;0.65;;;;;;;27.57;30.36;96608.81;2084065;28;20538;-68
2022/07/26 12:01:19;;;;;;;2.40;0.77;;;;;;;27.96;30.54;96607.88;2084804;28;20190;-68
2022/07/26 12:02:21;;;;;;;2.60;0.90;;;;;;;28.47;29.67;96609.19;2083839;28;20217;-68
2022/07/26 12:03:23;;;;;;;2.47;0.80;;;;;;;28.99;29.40;96605.63;2084651;28;20205;-68
2022/07/26 12:04:29;;;;;;;4.32;0.90;;;;;;;29.28;28.71;96606.66;2084827;28;20194;-68
2022/07/26 12:05:32;;;;;;;3.70;0.80;;;;;;;29.76;27.62;96613.41;2086138;28;20326;-68
2022/07/26 12:06:37;;;;;;;1.38;0.82;;;;;;;29.69;27.53;96616.03;2083763;28;20221;-68
2022/07/26 12:07:52;;;;;;;6.70;0.90;;;;;;;29.53;27.00;96611.69;2082054;28;20485;-68
2022/07/26 12:08:57;;;;;;;1.40;0.70;;;;;;;29.27;27.70;96606.81;2084370;28;20743;-68
2022/07/26 12:10:00;;;;;;;2.45;0.88;;;;;;;29.67;27.88;96612.69;2084571;28;20202;-68
2022/07/26 12:11:04;;;;;;;2.17;0.85;;;;;;;29.60;27.77;96611.78;2084319;28;20706;-69
2022/07/26 12:12:09;;;;;;;2.28;0.80;;;;;;;29.93;27.70;96611.34;2082020;28;20765;-69
2022/07/26 12:13:14;;;;;;;6.15;0.80;;;;;;;30.16;27.08;96607.59;2084349;28;20202;-69
2022/07/26 12:14:24;;;;;;;5.55;0.90;;;;;;;29.65;27.83;96614.75;2085508;28;20219;-68
2022/07/26 12:15:26;;;;;;;5.43;0.98;;;;;;;29.33;27.01;96608.75;2085767;28;20206;-68
2022/07/26 12:16:48;;;;;;;2.00;0.90;;;;;;;29.08;28.00;96606.38;2086001;28;20198;-68
2022/07/26 12:17:59;;;;;;;2.75;0.80;;;;;;;28.91;28.11;96611.09;2085091;28;20208;-68
2022/07/26 12:19:01;;;;;;;2.30;0.80;;;;;;;28.55;29.07;96603.72;2083425;28;20230;-69
2022/07/26 12:20:12;;;;;;;2.03;1.02;;;;;;;28.04;29.41;96607.03;2082176;28;20224;-67
2022/07/26 12:21:14;;;;;;;2.53;1.27;;;;;;;27.54;30.16;96614.50;2082379;28;20193;-67
2022/07/26 12:22:18;;;;;;;1.73;0.88;;;;;;;28.01;29.60;96610.00;2083654;28;20221;-67
2022/07/26 12:23:19;;;;;;;2.67;0.93;;;;;;;28.20;29.34;96603.34;2082815;28;20217;-67
2022/07/26 12:24:40;;;;;;;1.88;0.90;;;;;;;27.96;29.68;96601.66;2084266;28;20557;-67
2022/07/26 12:25:41;;;;;;;2.28;0.90;;;;;;;28.24;29.59;96607.38;2083408;28;20200;-67
2022/07/26 12:27:04;;;;;;;4.22;0.85;;;;;;;28.46;29.07;96588.72;2082321;28;20244;-67
2022/07/26 12:28:06;;;;;;;4.28;0.90;;;;;;;27.91;30.18;96594.19;2081163;28;20548;-67
2022/07/26 12:29:23;;;;;;;2.42;0.82;;;;;;;28.03;29.53;96594.63;2082507;28;20228;-67
2022/07/26 12:30:24;;;;;;;3.05;0.80;;;;;;;28.99;28.80;96604.81;2085039;28;20201;-68
2022/07/26 12:31:32;;;;;;;1.83;0.80;;;;;;;29.37;28.28;96601.16;2086570;28;20872;-66
2022/07/26 12:32:36;;;;;;;1.58;0.80;;;;;;;29.34;28.27;96596.16;2086218;28;20253;-67
2022/07/26 12:33:48;;;;;;;4.47;1.02;;;;;;;29.30;28.25;96603.78;2083230;28;20622;-66
2022/07/26 12:35:07;;;;;;;2.05;0.80;;;;;;;29.67;27.41;96593.84;2082994;28;20287;-66
2022/07/26 12:36:17;;;;;;;2.00;0.80;;;;;;;29.14;28.06;96589.50;2085316;28;20211;-68
2022/07/26 12:37:31;;;;;;;7.45;0.70;;;;;;;28.93;27.95;96592.94;2082680;28;20244;-67
2022/07/26 12:38:42;;;;;;;3.42;1.00;;;;;;;28.31;28.32;96592.19;2080593;28;20202;-67
2022/07/26 12:40:10;;;;;;;3.13;0.80;;;;;;;29.40;27.42;96590.03;2081674;28;20209;-68
2022/07/26 12:41:11;;;;;;;3.30;0.90;;;;;;;29.78;26.72;96590.66;2083420;28;20198;-68
2022/07/26 12:42:26;;;;;;;1.75;0.73;;;;;;;29.97;26.16;96593.78;2081695;28;20271;-68
2022/07/26 12:43:41;;;;;;;1.60;0.75;;;;;;;29.72;26.42;96590.59;2082039;28;20704;-67
2022/07/26 12:44:49;;;;;;;3.92;1.70;;;;;;;29.58;26.09;96590.44;2082182;28;20262;-67
2022/07/26 12:45:50;;;;;;;5.43;0.95;;;;;;;29.41;26.13;96591.72;2083375;28;20196;-66
2022/07/26 12:46:52;;;;;;;2.47;0.73;;;;;;;29.84;26.19;96597.16;2084785;28;20204;-66
2022/07/26 12:47:55;;;;;;;2.45;0.80;;;;;;;29.51;26.35;96596.78;2081205;28;20231;-66
2022/07/26 12:48:57;;;;;;;4.03;0.85;;;;;;;29.55;25.90;96598.09;2083758;28;20204;-66
2022/07/26 12:50:05;;;;;;;1.20;0.70;;;;;;;29.71;26.07;96591.63;2082716;28;20205;-66
2022/07/26 12:51:07;;;;;;;2.67;0.90;;;;;;;29.25;26.36;96590.03;2085259;28;20208;-66
2022/07/26 12:52:08;;;;;;;1.63;0.80;;;;;;;28.65;27.59;96580.09;2086717;28;20580;-66
2022/07/26 12:53:10;;;;;;;2.88;0.90;;;;;;;28.74;27.49;96588.94;2081467;28;20657;-66
2022/07/26 12:54:13;;;;;;;3.05;0.98;;;;;;;29.70;26.75;96581.88;2080716;28;20285;-66
2022/07/26 12:55:18;;;;;;;1.30;0.70;;;;;;;30.00;26.90;96587.19;2082929;28;20205;-68
2022/07/26 12:56:19;;;;;;;2.72;0.88;;;;;;;29.93;26.21;96587.13;2083743;28;20217;-68
2022/07/26 12:57:21;;;;;;;1.60;0.90;;;;;;;29.92;25.86;96591.66;2083484;28;20255;-67
2022/07/26 12:58:22;;;;;;;1.75;0.93;;;;;;;29.72;26.33;96580.66;2083278;28;20197;-67
2022/07/26 12:59:24;;;;;;;3.45;0.93;;;;;;;28.60;27.60;96581.69;2083896;28;20193;-68
2022/07/26 13:00:26;;;;;;;1.65;0.68;;;;;;;28.77;27.86;96582.38;2083435;28;20209;-67
2022/07/26 13:01:30;;;;;;;4.80;1.13;;;;;;;28.60;27.80;96582.50;2083463;28;20197;-67
2022/07/26 13:02:32;;;;;;;1.67;0.85;;;;;;;28.50;28.19;96579.25;2084834;28;20561;-67
2022/07/26 13:03:34;;;;;;;1.95;0.77;;;;;;;28.11;28.38;96578.47;2086058;28;20652;-67
2022/07/26 13:04:36;;;;;;;1.60;0.73;;;;;;;28.10;28.53;96581.31;2077240;28;20233;-67
2022/07/26 13:05:37;;;;;;;1.50;0.75;;;;;;;27.71;29.02;96583.09;2080639;28;20198;-67
2022/07/26 13:06:38;;;;;;;2.10;0.90;;;;;;;27.73;29.29;96583.75;2079152;28;20194;-67
2022/07/26 13:07:40;;;;;;;2.58;0.80;;;;;;;27.88;29.22;96573.06;2080273;28;20241;-67
2022/07/26 13:08:42;;;;;;;3.58;0.70;;;;;;;28.15;28.72;96577.06;2082719;28;20205;-67
2022/07/26 13:09:44;;;;;;;1.80;0.80;;;;;;;28.47;28.39;96564.34;2081811;28;20201;-67
2022/07/26 13:10:46;;;;;;;2.40;0.90;;;;;;;28.24;28.66;96583.22;2084290;28;20429;-67
2022/07/26 13:11:47;;;;;;;3.83;1.10;;;;;;;28.02;28.99;96579.50;2084721;28;20667;-67
2022/07/26 13:12:48;;;;;;;3.05;0.80;;;;;;;27.96;28.99;96590.94;2085921;28;20228;-67
2022/07/26 13:13:50;;;;;;;2.05;0.93;;;;;;;27.64;29.41;96580.28;2083689;28;20213;-68
2022/07/26 13:14:51;;;;;;;3.88;1.00;;;;;;;28.11;28.60;96582.97;2080077;28;20553;-67
2022/07/26 13:15:53;;;;;;;5.05;0.93;;;;;;;27.72;28.93;96576.72;2080622;28;20209;-67
2022/07/26 13:16:55;;;;;;;2.53;1.10;;;;;;;27.57;28.62;96571.28;2086640;28;20197;-67
2022/07/26 13:17:57;;;;;;;2.80;1.02;;;;;;;27.67;28.50;96576.41;2082615;28;20343;-67
2022/07/26 13:18:58;;;;;;;3.28;1.00;;;;;;;27.66;28.81;96582.78;2079003;28;20549;-67
2022/07/26 13:20:00;;;;;;;1.80;0.90;;;;;;;27.51;29.15;96585.38;2080995;28;20212;-67
2022/07/26 13:21:01;;;;;;;2.55;0.75;;;;;;;27.33;29.26;96591.00;2083819;28;20721;-67
2022/07/26 13:22:04;;;;;;;2.28;0.93;;;;;;;27.29;29.45;96579.78;2084392;28;20229;-69
2022/07/26 13:23:10;;;;;;;1.60;0.80;;;;;;;27.38;28.83;96565.31;2085514;28;20202;-70
2022/07/26 13:24:14;;;;;;;3.15;0.80;;;;;;;27.15;28.84;96572.50;2087247;28;20251;-70
2022/07/26 13:25:17;;;;;;;3.38;0.77;;;;;;;26.76;28.84;96574.13;2085046;28;20201;-69
2022/07/26 13:26:19;;;;;;;1.60;0.80;;;;;;;26.69;29.44;96573.09;2084464;28;20632;-70
2022/07/26 13:27:22;;;;;;;1.95;0.60;;;;;;;27.33;28.81;96570.38;2082028;28;20214;-70
2022/07/26 13:28:23;;;;;;;6.28;0.98;;;;;;;28.07;27.73;96569.09;2084623;28;20201;-69
2022/07/26 13:29:25;;;;;;;5.32;0.93;;;;;;;28.78;27.09;96568.75;2085390;28;20230;-69
2022/07/26 13:30:26;;;;;;;1.40;0.60;;;;;;;28.65;26.60;96558.63;2083966;28;20189;-70
2022/07/26 13:31:28;;;;;;;2.63;1.00;;;;;;;29.76;26.16;96562.28;2087290;28;20226;-69
2022/07/26 13:32:30;;;;;;;1.58;0.80;;;;;;;29.61;25.78;96557.78;2083169;28;20233;-70
2022/07/26 13:33:32;;;;;;;2.25;0.98;;;;;;;29.49;25.77;96562.00;2085510;28;20198;-69
2022/07/26 13:34:33;;;;;;;1.40;0.90;;;;;;;29.05;26.08;96555.69;2083447;28;20723;-70
2022/07/26 13:35:38;;;;;;;1.85;0.70;;;;;;;29.38;26.40;96559.81;2083237;28;20247;-69
2022/07/26 13:36:41;;;;;;;3.55;0.95;;;;;;;29.30;25.74;96558.06;2082026;28;20241;-69
2022/07/26 13:37:42;;;;;;;2.67;0.80;;;;;;;28.67;26.69;96559.31;2081247;28;20217;-70
2022/07/26 13:38:44;;;;;;;5.30;1.08;;;;;;;28.24;27.21;96558.19;2085576;28;20205;-70
2022/07/26 13:39:45;;;;;;;3.20;1.02;;;;;;;28.73;26.49;96559.59;2081188;28;20198;-70
2022/07/26 13:40:49;;;;;;;2.10;0.70;;;;;;;29.16;26.34;96560.56;2080708;28;20237;-70
2022/07/26 13:41:51;;;;;;;4.18;0.80;;;;;;;28.76;26.34;96559.19;2081569;28;20194;-70